Chicago, IL

2:14 AM CST on February 27, 2017 (GMT -0600)
George Street | | Change Station

Elev 656 ft 41.94 °N, 87.88 °W | Updated 3 minutes ago

Partly Cloudy
Partly Cloudy
35.2 °F
Feels Like 35 °F
N
1.2
Wind Variable Wind from SSW
Gusts 3.7 mph

Today
High -- | Low -- °F
--% Chance of Precip.
Yesterday
High -- | Low -- °F
Precip. -- in
Pressure 30.10 in
Visibility 10.0 miles
Clouds Few 6000 ft
Windchill 35 °F
Dew Point 24 °F
Humidity 64%
Rainfall 0.00 in
Snow Depth Not available.
6:29 AM 5:39 PM
New Moon, 1% visible
METAR KORD 270751Z 00000KT 10SM FEW060 01/M04 A3008 RMK AO2 SLP192 T00111044
Pressure 30.10 in
Visibility 10.0 miles
Clouds Few 6000 ft
Windchill 35 °F
Dew Point 24 °F
Humidity 64%
Rainfall 0.00 in
Snow Depth Not available.
6:29 AM 5:39 PM
New Moon, 1% visible
METAR KORD 270751Z 00000KT 10SM FEW060 01/M04 A3008 RMK AO2 SLP192 T00111044

Get Your Daily Forecast Email!

Thanks for signing up!

Be on the lookout for a verification email in your inbox.

You'll start receiving the daily forecast at 8 AM.

×

10-Day Weather Forecast

Almanac

Astronomy

Feb. 27, 2017 Rise Set
Actual Time
Civil Twilight
Nautical Twilight
Astronomical Twilight
Moon
Length of Visible Light
Length of Day
Tomorrow will be .
, % of the Moon is Illuminated

Today's Extremes

State Highs State Lows

Community

WunderPhotos

Upload Photos

1,962,540 photos uploaded!

WunderBlog® & News

Nearby

Air Quality

  Air Quality AQ Index Pollutant
Not available.

Snow Depth

Station Depth Elevation

Earthquake Activity

City Distance Mag. Time & Date
Minimum magnitude displayed is 2.5.

Coastal Water Temperatures

Place Temperature

Stations

Nearby Weather Stations

Station Location Temp. Windchill Dew Point Humidity Wind Precip. Elev Updated Type
                   

Watches & Warnings

There are currently no watches in effect.